Capewater — PBPQ — position and weather

sailwx.info

Track history (hours):
 
Tides and Currents Weather Stations Pressure Air Temp Water Temp Dewpoint Dewpoint Depression Visibility Wind Speed Wind Dir Waves Ship Positions

Capewater

Last reported at 2016-Sep-29 08:31 UTC. Time now 2016-Sep-29 13:40 UTC.
Position N 51°52' E 004°16'.

Length 100 m; draft 5.3 m.

Type: Tanker. MMSI: 246346000.

Date/timePositionNaut miles runAvg speedWind from/ knotsBaromVisibWave heightAir tempDewpointWater temp
2016-Sep-29 08:31N 51°52' E 004°16'0 0.0
2016-Sep-29 07:31N 51°52' E 004°16'0 0.0
2016-Sep-29 00:31N 51°52' E 004°16'0 0.0
2016-Sep-28 21:31N 51°52' E 004°16'0 0.0
2016-Sep-28 19:31N 51°52' E 004°16'0 0.0
2016-Sep-28 16:31N 51°52' E 004°16'0 0.0
2016-Sep-28 15:31N 51°52' E 004°16'2 0.5
2016-Sep-28 12:34N 51°53' E 004°18'20 4.9
2016-Sep-28 08:30N 51°55' E 003°46'0 0.0
2016-Sep-28 03:33N 51°56' E 003°46'0 0.0
2016-Sep-28 02:33N 51°56' E 003°46'0 0.0
2016-Sep-28 01:33N 51°56' E 003°46'0 0.0
2016-Sep-27 23:30N 51°56' E 003°46'0 0.0
2016-Sep-27 19:33N 51°55' E 003°46'0 0.0
2016-Sep-27 14:33N 51°56' E 003°46'0 0.2
2016-Sep-27 13:33N 51°56' E 003°46'28 9.4
2016-Sep-27 10:33N 52°24' E 003°49'11011.0
2016-Sep-27 00:33N 53°45' E 005°54'5313.3
2016-Sep-26 20:34N 53°58' E 007°21'1212.5
2016-Sep-26 19:33N 54°01' E 007°42'4711.9
2016-Sep-26 15:33N 53°51' E 009°01'7 3.2
2016-Sep-26 13:31N 53°55' E 009°10'0 0.0
2016-Sep-26 11:28N 53°55' E 009°10'0 0.0
2016-Sep-26 08:13N 53°55' E 009°10'0 0.0
2016-Sep-26 02:31N 53°55' E 009°10'0 0.0
2016-Sep-26 01:31N 53°55' E 009°10'0 0.0
2016-Sep-26 00:31N 53°55' E 009°10'0 0.0
2016-Sep-25 21:31N 53°55' E 009°10'0 0.0
2016-Sep-25 17:19N 53°55' E 009°10'0 0.0
2016-Sep-25 16:31N 53°55' E 009°10'0 0.0
2016-Sep-25 15:31N 53°55' E 009°10'0 0.0
2016-Sep-25 14:31N 53°55' E 009°10'0 0.0
2016-Sep-25 12:22N 53°55' E 009°10'0 0.0
2016-Sep-25 11:25N 53°55' E 009°10'0 0.1
2016-Sep-25 10:34N 53°55' E 009°10'1 1.3
2016-Sep-25 09:34N 53°54' E 009°08'16 8.0
2016-Sep-25 07:33N 53°54' E 008°41'3812.6
2016-Sep-25 04:33N 54°07' E 007°41'5313.4
2016-Sep-25 00:33N 54°07' E 006°10'2814.1
2016-Sep-24 22:34N 54°04' E 005°22'1413.7
2016-Sep-24 21:33N 54°02' E 004°59'2813.2
2016-Sep-24 19:28N 53°58' E 004°13'18120.3
2016-Sep-24 10:32N 54°48' W 000°46'3 3.0
2016-Sep-24 09:33N 54°47' W 000°51'8 0.3
2016-Sep-23 09:26N 54°41' W 001°01'0 0.0
2016-Sep-23 06:33N 54°41' W 001°01'19 8.7
2016-Sep-23 04:25N 54°34' W 000°30'1112.5
2016-Sep-23 03:33N 54°26' W 000°18'1313.1
2016-Sep-23 02:33N 54°16' W 000°05'1313.5
2016-Sep-23 01:33N 54°04' E 000°07'1414.0
2016-Sep-23 00:34N 53°51' E 000°15'1313.4
2016-Sep-22 23:33N 53°38' E 000°22'20 6.5
2016-Sep-22 20:30N 53°38' W 000°11'0 0.0
2016-Sep-22 12:34N 53°38' W 000°11'0 0.0
2016-Sep-22 04:33N 53°38' W 000°11'0 0.0
2016-Sep-22 03:33N 53°38' W 000°11'0 0.0
2016-Sep-22 00:33N 53°38' W 000°11'0 0.0
2016-Sep-21 23:33N 53°38' W 000°11'0 0.0
2016-Sep-21 22:33N 53°38' W 000°11'1 0.4
2016-Sep-21 19:33N 53°38' W 000°10'20 6.3
2016-Sep-21 16:18N 53°36' E 000°25'0 0.0
2016-Sep-21 09:21N 53°36' E 000°25'0 0.0
2016-Sep-21 08:33N 53°36' E 000°25'0 0.0
2016-Sep-21 05:33N 53°36' E 000°25'0 0.1
2016-Sep-21 03:30N 53°36' E 000°25'0 0.0
2016-Sep-21 02:30N 53°36' E 000°25'0 0.0
2016-Sep-20 17:27N 53°36' E 000°25'0 0.1
2016-Sep-20 14:30N 53°36' E 000°25'0 0.0
2016-Sep-20 13:30N 53°36' E 000°25'0 0.0
2016-Sep-20 10:33N 53°36' E 000°25'0 0.1
2016-Sep-20 08:33N 53°36' E 000°25'0 0.0
2016-Sep-20 07:21N 53°36' E 000°25'0 0.0
2016-Sep-20 06:33N 53°36' E 000°25'36 8.9
2016-Sep-20 02:33N 54°11' E 000°20'3010.1
2016-Sep-19 23:34N 54°35' W 000°12'  
Track history (hours):
 
Tides and Currents Weather Stations Pressure Air Temp Water Temp Dewpoint Dewpoint Depression Visibility Wind Speed Wind Dir Waves Ship Positions

Capewater

Last reported at 2016-Sep-29 08:31 UTC. Time now 2016-Sep-29 13:40 UTC.
Position N 51°52' E 004°16'.

Length 100 m; draft 5.3 m.

Type: Tanker. MMSI: 246346000.

Date/timePositionNaut miles runAvg speedWind from/ knotsBaromVisibWave heightAir tempDewpointWater temp
2016-Sep-29 08:31N 51°52' E 004°16'0 0.0
2016-Sep-29 07:31N 51°52' E 004°16'0 0.0
2016-Sep-29 00:31N 51°52' E 004°16'0 0.0
2016-Sep-28 21:31N 51°52' E 004°16'0 0.0
2016-Sep-28 19:31N 51°52' E 004°16'0 0.0
2016-Sep-28 16:31N 51°52' E 004°16'0 0.0
2016-Sep-28 15:31N 51°52' E 004°16'2 0.5
2016-Sep-28 12:34N 51°53' E 004°18'20 4.9
2016-Sep-28 08:30N 51°55' E 003°46'0 0.0
2016-Sep-28 03:33N 51°56' E 003°46'0 0.0
2016-Sep-28 02:33N 51°56' E 003°46'0 0.0
2016-Sep-28 01:33N 51°56' E 003°46'0 0.0
2016-Sep-27 23:30N 51°56' E 003°46'0 0.0
2016-Sep-27 19:33N 51°55' E 003°46'0 0.0
2016-Sep-27 14:33N 51°56' E 003°46'0 0.2
2016-Sep-27 13:33N 51°56' E 003°46'28 9.4
2016-Sep-27 10:33N 52°24' E 003°49'11011.0
2016-Sep-27 00:33N 53°45' E 005°54'5313.3
2016-Sep-26 20:34N 53°58' E 007°21'1212.5
2016-Sep-26 19:33N 54°01' E 007°42'4711.9
2016-Sep-26 15:33N 53°51' E 009°01'7 3.2
2016-Sep-26 13:31N 53°55' E 009°10'0 0.0
2016-Sep-26 11:28N 53°55' E 009°10'0 0.0
2016-Sep-26 08:13N 53°55' E 009°10'0 0.0
2016-Sep-26 02:31N 53°55' E 009°10'0 0.0
2016-Sep-26 01:31N 53°55' E 009°10'0 0.0
2016-Sep-26 00:31N 53°55' E 009°10'0 0.0
2016-Sep-25 21:31N 53°55' E 009°10'0 0.0
2016-Sep-25 17:19N 53°55' E 009°10'0 0.0
2016-Sep-25 16:31N 53°55' E 009°10'0 0.0
2016-Sep-25 15:31N 53°55' E 009°10'0 0.0
2016-Sep-25 14:31N 53°55' E 009°10'0 0.0
2016-Sep-25 12:22N 53°55' E 009°10'0 0.0
2016-Sep-25 11:25N 53°55' E 009°10'0 0.1
2016-Sep-25 10:34N 53°55' E 009°10'1 1.3
2016-Sep-25 09:34N 53°54' E 009°08'16 8.0
2016-Sep-25 07:33N 53°54' E 008°41'3812.6
2016-Sep-25 04:33N 54°07' E 007°41'5313.4
2016-Sep-25 00:33N 54°07' E 006°10'2814.1
2016-Sep-24 22:34N 54°04' E 005°22'1413.7
2016-Sep-24 21:33N 54°02' E 004°59'2813.2
2016-Sep-24 19:28N 53°58' E 004°13'18120.3
2016-Sep-24 10:32N 54°48' W 000°46'3 3.0
2016-Sep-24 09:33N 54°47' W 000°51'8 0.3
2016-Sep-23 09:26N 54°41' W 001°01'0 0.0
2016-Sep-23 06:33N 54°41' W 001°01'19 8.7
2016-Sep-23 04:25N 54°34' W 000°30'1112.5
2016-Sep-23 03:33N 54°26' W 000°18'1313.1
2016-Sep-23 02:33N 54°16' W 000°05'1313.5
2016-Sep-23 01:33N 54°04' E 000°07'1414.0
2016-Sep-23 00:34N 53°51' E 000°15'1313.4
2016-Sep-22 23:33N 53°38' E 000°22'20 6.5
2016-Sep-22 20:30N 53°38' W 000°11'0 0.0
2016-Sep-22 12:34N 53°38' W 000°11'0 0.0
2016-Sep-22 04:33N 53°38' W 000°11'0 0.0
2016-Sep-22 03:33N 53°38' W 000°11'0 0.0
2016-Sep-22 00:33N 53°38' W 000°11'0 0.0
2016-Sep-21 23:33N 53°38' W 000°11'0 0.0
2016-Sep-21 22:33N 53°38' W 000°11'1 0.4
2016-Sep-21 19:33N 53°38' W 000°10'20 6.3
2016-Sep-21 16:18N 53°36' E 000°25'0 0.0
2016-Sep-21 09:21N 53°36' E 000°25'0 0.0
2016-Sep-21 08:33N 53°36' E 000°25'0 0.0
2016-Sep-21 05:33N 53°36' E 000°25'0 0.1
2016-Sep-21 03:30N 53°36' E 000°25'0 0.0
2016-Sep-21 02:30N 53°36' E 000°25'0 0.0
2016-Sep-20 17:27N 53°36' E 000°25'0 0.1
2016-Sep-20 14:30N 53°36' E 000°25'0 0.0
2016-Sep-20 13:30N 53°36' E 000°25'0 0.0
2016-Sep-20 10:33N 53°36' E 000°25'0 0.1
2016-Sep-20 08:33N 53°36' E 000°25'0 0.0
2016-Sep-20 07:21N 53°36' E 000°25'0 0.0
2016-Sep-20 06:33N 53°36' E 000°25'36 8.9
2016-Sep-20 02:33N 54°11' E 000°20'3010.1
2016-Sep-19 23:34N 54°35' W 000°12'  

Dump ship's entire track history